Latest Weather Observations for Amberley

IDQ60801

Issued at 4:02 am EST Saturday 20 December 2014 (issued every 30 minutes, with the page automatically refreshed every 10 minutes)

About weather observations | Map of weather stations | Latest weather observations for QLD | Other Formats
Station Details ID: 040004 Name: AMBERLEY AMO Lat: -27.63 Lon: 152.71 Height: 24.2 m
Data from the previous 72 hours. | See also: Recent months at Amberley
Date/Time
EST
Temp
°C
App
Temp
°C
Dew
Point
Rel
Hum
%
Delta-T
°C
Wind Press
QNH
hPa
Press
MSL
hPa
Rain
since 9 am
mm
Dir
 
Spd
km/h
Gust
km/h
Spd
kts
Gust
kts
20/03:30am 20.7 23.9 18.8 89 1.2 CALM 0 0 0 0 1013.5 - 0.0
20/03:00am 20.9 24.2 19.0 89 1.2 CALM 0 0 0 0 1013.3 1013.1 0.0
20/02:30am 21.2 24.3 18.6 85 1.6 CALM 0 2 0 1 1013.3 - 0.0
20/02:00am 21.8 25.0 18.9 83 1.8 CALM 0 0 0 0 1013.4 - 0.0
20/01:30am 22.0 24.0 18.7 81 2.1 ESE 6 7 3 4 1013.4 - 0.0
20/01:00am 22.3 24.1 18.8 80 2.2 E 7 9 4 5 1013.4 - 0.0
20/12:30am 22.9 24.4 19.0 78 2.5 E 9 11 5 6 1013.6 - 0.0
20/12:00am 23.2 24.4 19.1 78 2.6 E 11 13 6 7 1013.7 1013.5 0.0
 
Date/Time
EST
Temp
°C
App
Temp
°C
Dew
Point
Rel
Hum
%
Delta-T
°C
Wind Press
QNH
hPa
Press
MSL
hPa
Rain
since 9 am
mm
Dir
 
Spd
km/h
Gust
km/h
Spd
kts
Gust
kts
19/11:30pm 23.6 24.8 19.0 75 2.9 E 11 13 6 7 1014.0 - 0.0
19/11:00pm 24.2 24.7 19.2 73 3.2 E 15 17 8 9 1013.8 - 0.0
19/10:30pm 24.5 26.0 19.7 74 3.1 ESE 11 15 6 8 1013.8 - 0.0
19/10:00pm 24.8 24.9 19.2 71 3.6 ESE 17 26 9 14 1013.6 - 0.0
19/09:30pm 25.4 24.1 16.8 59 5.3 ESE 19 28 10 15 1013.2 - 0.0
19/09:00pm 26.1 22.5 16.2 54 6.1 E 30 39 16 21 1012.3 1012.1 0.0
19/08:42pm 26.6 23.7 17.0 55 6.0 E 28 46 15 25 1011.8 - 0.0
19/08:30pm 26.7 23.2 17.5 57 5.8 E 32 41 17 22 1011.6 - 0.0
19/08:00pm 27.0 24.0 19.9 65 4.6 E 35 50 19 27 1011.1 - 0.0
19/07:35pm 27.8 24.9 18.8 58 5.8 E 32 50 17 27 1010.4 - 0.0
19/07:30pm 27.8 25.0 19.1 59 5.6 E 32 43 17 23 1010.2 - 0.0
19/07:10pm 27.6 24.2 15.7 48 7.3 ESE 28 43 15 23 1009.7 - 0.0
19/07:00pm 28.5 30.9 16.9 49 7.3 CALM 0 0 0 0 1009.2 - 0.0
19/06:30pm 30.3 29.8 13.7 36 10.0 N 9 11 5 6 1008.9 - 0.0
19/06:00pm 31.9 31.3 13.5 32 11.1 N 9 9 5 5 1008.6 1008.4 0.0
19/05:30pm 31.7 31.2 12.7 31 11.3 N 7 11 4 6 1008.3 - 0.0
19/05:00pm 33.4 32.1 11.2 25 13.0 N 9 13 5 7 1008.0 - 0.0
19/04:30pm 32.2 31.1 12.1 29 11.9 WSW 9 15 5 8 1007.8 - 0.0
19/04:00pm 33.2 30.9 11.7 27 12.7 WNW 15 17 8 9 1007.7 - 0.0
19/03:30pm 33.7 30.9 11.2 25 13.2 W 17 26 9 14 1007.8 - 0.0
19/03:00pm 33.8 30.5 10.9 24 13.4 WSW 19 28 10 15 1008.1 1007.9 0.0
19/02:30pm 34.2 32.5 12.3 26 13.1 WSW 13 26 7 14 1008.5 - 0.0
19/02:00pm 33.6 31.2 10.0 23 13.6 SSW 13 26 7 14 1008.8 - 0.0
19/01:30pm 33.0 30.2 10.0 24 13.2 SSW 15 24 8 13 1009.2 - 0.0
19/01:00pm 32.4 31.9 16.0 37 10.3 W 13 20 7 11 1009.4 - 0.0
19/12:30pm 31.6 30.3 14.9 36 10.3 W 15 24 8 13 1009.7 - 0.0
19/12:00pm 31.6 31.7 16.5 40 9.5 WSW 11 19 6 10 1010.1 1009.9 0.0
19/11:30am 30.9 31.4 16.6 42 9.0 NNW 9 19 5 10 1010.5 - 0.0
19/11:00am 29.6 29.3 17.3 47 7.8 WSW 15 26 8 14 1010.9 - 0.0
19/10:30am 29.1 30.1 19.4 55 6.3 W 13 22 7 12 1011.0 - 0.0
19/10:00am 27.9 26.7 18.5 56 6.0 W 22 28 12 15 1011.1 - 0.0
19/09:30am 27.6 27.3 18.2 56 6.0 WSW 17 22 9 12 1011.4 - 0.0
19/08:30am 24.6 24.2 19.0 71 3.6 NW 19 26 10 14 1011.7 - 13.6
19/08:00am 23.3 22.9 18.9 76 2.8 NW 19 28 10 15 1011.9 - 13.6
19/06:30am 21.2 22.5 19.3 89 1.2 NW 11 13 6 7 1011.8 - 13.6
19/06:00am 20.8 23.5 19.4 92 0.9 NW 4 0 2 0 1011.6 1011.4 13.6
19/05:30am 20.6 22.2 19.2 92 0.9 W 9 11 5 6 1011.4 - 13.6
19/05:00am 20.8 22.5 19.4 92 0.9 WSW 9 11 5 6 1011.7 - 13.6
19/04:30am 20.9 22.3 19.5 92 0.9 W 11 13 6 7 1011.3 - 13.6
19/04:00am 20.7 22.5 19.6 93 0.7 NNW 9 11 5 6 1011.2 - 13.6
19/03:30am 20.6 23.8 18.8 89 1.1 CALM 0 9 0 5 1011.0 - 13.6
19/03:00am 21.1 24.7 19.7 92 0.9 CALM 0 0 0 0 1011.4 1011.2 13.6
19/02:59am 21.1 24.7 19.7 92 0.9 CALM 0 0 0 0 1011.4 - 13.6
19/02:32am 21.7 24.4 20.3 92 0.9 SW 6 9 3 5 1011.6 - 13.4
19/02:30am 21.7 24.4 20.3 92 0.9 SW 6 9 3 5 1011.6 - 13.4
19/02:00am 21.6 25.6 20.5 93 0.7 CALM 0 0 0 0 1011.8 - 13.4
19/01:30am 21.7 24.4 20.3 92 0.9 SW 6 7 3 4 1012.3 - 13.2
19/01:00am 22.1 24.2 20.2 89 1.2 W 9 13 5 7 1012.6 - 12.6
19/12:30am 22.1 23.8 20.2 89 1.2 WNW 11 17 6 9 1012.4 - 12.2
19/12:00am 22.5 22.7 20.5 88 1.3 NW 20 26 11 14 1012.2 1012.0 11.4
 
Date/Time
EST
Temp
°C
App
Temp
°C
Dew
Point
Rel
Hum
%
Delta-T
°C
Wind Press
QNH
hPa
Press
MSL
hPa
Rain
since 9 am
mm
Dir
 
Spd
km/h
Gust
km/h
Spd
kts
Gust
kts
18/11:30pm 22.8 26.0 21.7 93 0.7 NNE 7 7 4 4 1011.9 - 10.6
18/11:00pm 23.1 27.7 21.7 92 0.9 CALM 0 0 0 0 1011.4 - 9.8
18/10:30pm 23.2 27.8 21.7 91 1.0 CALM 0 0 0 0 1011.1 - 9.8
18/10:00pm 23.1 25.6 21.7 92 0.9 E 11 13 6 7 1010.6 - 9.8
18/09:30pm 23.1 26.1 21.9 93 0.8 E 9 11 5 6 1010.7 - 9.8
18/09:00pm 23.2 27.6 21.4 90 1.2 CALM 0 0 0 0 1010.7 1010.5 9.8
18/08:30pm 23.1 25.8 21.4 90 1.1 NNE 9 13 5 7 1010.3 - 9.8
18/08:00pm 22.9 26.1 21.2 90 1.1 NNW 6 11 3 6 1009.8 - 9.8
18/07:30pm 23.2 27.1 21.2 88 1.3 NW 2 9 1 5 1009.5 - 9.6
18/07:00pm 22.8 24.7 21.3 91 1.0 N 13 17 7 9 1010.5 - 9.6
18/06:30pm 22.7 26.9 21.0 90 1.1 CALM 0 0 0 0 1010.0 - 9.6
18/06:00pm 23.0 24.0 21.0 88 1.3 S 17 20 9 11 1009.7 1009.5 9.4
18/05:49pm 23.1 22.5 20.6 86 1.6 SW 24 33 13 18 1009.6 - 9.0
18/05:45pm 22.9 21.6 20.6 87 1.5 SW 28 41 15 22 1009.6 - 9.0
18/05:35pm 22.2 19.1 20.5 90 1.1 WSW 37 56 20 30 1009.2 - 9.0
18/05:31pm 21.7 18.4 20.8 95 0.6 WSW 39 56 21 30 1009.1 - 8.0
18/05:30pm 21.8 18.2 20.9 95 0.6 WSW 41 56 22 30 1009.2 - 7.2
18/05:27pm 21.8 17.8 21.0 95 0.5 WSW 43 54 23 29 1008.7 - 5.8
18/05:18pm 22.8 15.0 21.0 89 1.2 WSW 63 87 34 47 1007.8 - 0.2
18/05:14pm 25.6 16.0 19.6 69 3.9 WSW 69 87 37 47 1007.9 - 0.0
18/05:13pm 26.6 24.0 19.5 65 4.6 WSW 32 87 17 47 1007.5 - 0.0
18/05:10pm 30.0 33.0 23.3 67 4.6 SE 13 19 7 10 1007.2 - 0.0
18/05:00pm 29.9 32.7 23.7 69 4.3 E 15 20 8 11 1005.1 - 0.0
18/04:30pm 30.5 33.0 23.1 64 5.1 E 15 19 8 10 1004.8 - 0.0
18/04:00pm 30.8 31.5 22.3 60 5.8 ENE 22 32 12 17 1004.4 - 0.0
18/03:30pm 31.2 31.6 21.8 57 6.4 ENE 22 32 12 17 1004.5 - 0.0
18/03:00pm 32.0 32.3 21.5 53 7.1 ENE 22 30 12 16 1004.8 1004.6 0.0
18/02:30pm 32.6 33.1 21.9 53 7.3 ENE 22 28 12 15 1005.3 - 0.0
18/02:00pm 34.3 36.3 19.9 42 9.6 N 9 20 5 11 1005.4 - 0.0
18/01:30pm 34.8 34.8 17.3 35 11.3 NE 13 19 7 10 1006.0 - 0.0
18/01:00pm 34.3 34.5 18.6 39 10.3 NE 15 22 8 12 1006.8 - 0.0
18/12:30pm 33.8 34.2 18.9 41 9.8 NW 15 22 8 12 1007.6 - 0.0
18/12:00pm 33.0 33.9 18.4 42 9.5 E 11 17 6 9 1008.1 1007.9 0.0
18/11:30am 32.2 34.0 20.3 49 7.9 NE 11 19 6 10 1008.4 - 0.0
18/11:00am 31.7 34.8 21.1 53 7.1 NW 6 11 3 6 1009.1 - 0.0
18/10:30am 31.5 34.5 21.9 56 6.5 NNE 9 15 5 8 1009.7 - 0.0
18/10:00am 29.7 32.1 20.8 58 5.9 N 9 15 5 8 1010.0 - 0.0
18/09:30am 29.8 33.8 23.1 67 4.6 N 7 13 4 7 1010.4 - 0.0
18/09:00am 28.2 30.6 22.3 70 4.0 ENE 13 20 7 11 1010.3 1010.1 6.0
18/08:30am 27.7 29.6 22.1 71 3.8 NE 15 22 8 12 1010.6 - 6.0
18/08:00am 27.1 29.0 22.7 77 3.0 ENE 17 26 9 14 1010.8 - 6.0
18/07:30am 25.3 28.3 22.0 82 2.2 ENE 9 13 5 7 1010.9 - 6.0
18/07:00am 24.1 28.0 21.8 87 1.5 ENE 4 7 2 4 1010.9 - 6.0
18/06:30am 23.4 26.5 21.4 88 1.3 NNE 7 9 4 5 1010.8 - 6.0
18/06:00am 23.0 25.2 21.2 89 1.2 N 11 15 6 8 1010.5 1010.3 6.0
18/05:30am 21.9 23.8 20.5 92 0.9 NNW 11 15 6 8 1010.0 - 6.0
18/05:00am 22.0 24.8 20.5 91 1.0 W 6 11 3 6 1009.0 - 6.0
18/04:30am 22.7 25.2 21.0 90 1.1 SW 9 15 5 8 1008.8 - 6.0
18/04:00am 22.7 24.5 21.2 91 1.0 SW 13 17 7 9 1008.8 - 6.0
18/03:30am 22.8 25.9 21.4 92 0.9 WSW 7 9 4 5 1009.0 - 6.0
18/03:00am 22.9 25.6 21.4 91 1.0 WNW 9 13 5 7 1009.7 1009.5 6.0
18/02:30am 22.7 25.5 21.5 93 0.8 SE 9 13 5 7 1009.3 - 5.8
18/02:00am 22.7 25.8 21.5 93 0.8 WNW 7 11 4 6 1009.1 - 5.8
18/01:30am 23.1 26.2 21.4 90 1.1 SSW 7 11 4 6 1009.9 - 5.8
18/01:00am 23.0 25.8 21.6 92 0.9 SSW 9 13 5 7 1009.9 - 5.2
18/12:59am 23.0 25.8 21.6 92 0.9 SSW 9 15 5 8 1009.9 - 5.0
18/12:46am 23.5 24.2 21.5 88 1.3 SSW 20 28 11 15 1010.3 - 3.6
18/12:30am 25.2 25.0 19.8 72 3.5 SW 20 28 11 15 1010.1 - 0.4
18/12:22am 26.0 25.7 20.3 71 3.7 SW 22 28 12 15 1009.8 - 0.0
18/12:00am 27.4 27.5 16.6 51 6.7 N 11 17 6 9 1007.8 1007.6 0.0
 
Date/Time
EST
Temp
°C
App
Temp
°C
Dew
Point
Rel
Hum
%
Delta-T
°C
Wind Press
QNH
hPa
Press
MSL
hPa
Rain
since 9 am
mm
Dir
 
Spd
km/h
Gust
km/h
Spd
kts
Gust
kts
17/11:30pm 27.7 29.1 18.7 58 5.8 N 9 13 5 7 1007.8 - 0.0
17/11:00pm 26.9 31.1 23.2 80 2.5 ESE 6 11 3 6 1007.1 - 0.0
17/10:30pm 26.9 32.4 23.4 81 2.4 CALM 0 0 0 0 1007.2 - 0.0
17/10:00pm 27.2 30.8 23.1 78 2.8 ENE 9 11 5 6 1006.9 - 0.0
17/09:30pm 27.6 30.9 23.2 77 3.0 SE 11 11 6 6 1006.6 - 0.0
17/09:00pm 28.3 32.8 22.9 72 3.7 NE 4 9 2 5 1006.2 1006.0 0.0
17/08:30pm 28.5 31.5 22.6 70 4.0 E 11 15 6 8 1005.3 - 0.0
17/08:00pm 29.6 32.5 22.4 65 4.9 NE 11 15 6 8 1004.9 - 0.0
17/07:30pm 30.6 32.8 21.9 59 5.9 NE 13 17 7 9 1004.8 - 0.0
17/07:00pm 31.0 31.9 21.5 57 6.4 E 19 26 10 14 1004.1 - 0.0
17/06:30pm 31.9 32.7 21.7 54 6.9 E 20 28 11 15 1003.6 - 0.0
17/06:00pm 34.6 32.9 16.2 33 11.7 ENE 20 28 11 15 1003.1 1002.9 0.0
17/05:30pm 35.1 33.6 17.7 35 11.3 ENE 22 30 12 16 1002.4 - 0.0
17/05:00pm 35.6 34.2 18.8 37 11.1 ENE 24 30 13 16 1002.1 - 0.0
17/04:30pm 36.1 33.8 17.7 33 11.9 ENE 26 33 14 18 1001.9 - 0.0
17/04:00pm 36.3 34.8 16.7 31 12.6 ENE 20 26 11 14 1001.8 - 0.0
17/03:30pm 37.9 37.7 13.5 23 15.0 NW 7 11 4 6 1001.9 - 0.0
17/03:00pm 39.0 39.3 14.5 23 15.4 SSE 6 13 3 7 1002.2 1002.0 0.0
17/02:30pm 38.0 36.8 11.6 20 15.8 NNW 9 22 5 12 1002.5 - 0.0
17/02:00pm 37.4 35.3 12.4 22 15.1 WNW 15 26 8 14 1002.9 - 0.0
17/01:30pm 38.4 36.2 15.0 25 14.7 WSW 20 30 11 16 1003.3 - 0.0
17/01:23pm 37.9 33.8 13.9 24 14.9 SW 28 54 15 29 1003.3 - 0.0
17/01:00pm 37.3 38.2 16.0 28 13.6 SSE 6 26 3 14 1003.8 - 0.0
17/12:30pm 36.3 37.4 17.9 33 12.0 NW 9 17 5 9 1004.3 - 0.0
17/12:00pm 35.4 36.8 17.7 35 11.5 W 7 17 4 9 1004.7 1004.5 0.0
17/11:30am 33.8 34.2 18.1 39 10.2 N 13 19 7 10 1005.2 - 0.0
17/11:00am 34.0 36.0 18.8 40 10.0 N 6 17 3 9 1005.8 - 0.0
17/10:30am 32.9 34.4 18.1 41 9.6 W 7 17 4 9 1006.1 - 0.0
17/10:00am 31.4 33.4 18.8 47 8.2 NW 6 13 3 7 1006.4 - 0.0
17/09:30am 30.7 31.3 18.5 48 7.9 N 13 17 7 9 1006.6 - 0.0
17/09:00am 29.2 31.5 19.9 57 6.1 WNW 7 13 4 7 1006.9 1006.7 0.0
17/08:30am 27.9 31.6 20.8 65 4.7 NW 2 7 1 4 1007.1 - 0.0
17/08:00am 26.6 30.4 21.0 71 3.7 W 2 7 1 4 1007.2 - 0.0
17/07:30am 25.7 28.9 21.2 76 3.0 SW 6 9 3 5 1007.2 - 0.0
17/07:00am 25.3 28.3 21.2 78 2.7 SW 7 11 4 6 1007.2 - 0.0
17/06:35am 24.3 26.7 20.8 81 2.3 SW 9 11 5 6 1006.9 - 0.0
17/06:30am 24.4 26.9 21.1 82 2.2 SW 9 11 5 6 1006.9 - 0.0
17/06:00am 23.5 26.2 20.6 84 1.9 SW 7 9 4 5 1006.8 1006.6 0.0
17/05:30am 22.4 25.0 20.4 88 1.3 S 7 9 4 5 1006.5 - 0.0
17/05:00am 22.1 24.3 20.4 90 1.1 S 9 11 5 6 1006.2 - 0.0
17/04:59am 22.0 24.2 20.5 91 1.0 S 9 11 5 6 1006.1 - 0.0
17/04:30am 21.7 23.8 20.1 91 1.0 S 9 11 5 6 1005.6 - 0.0

Other Formats:

Comma delimited format used in spreadsheet applications
http://www.bom.gov.au/fwo/IDQ60801/IDQ60801.94568.axf

JavaScript Object Notation format (JSON) in row-major order
http://www.bom.gov.au/fwo/IDQ60801/IDQ60801.94568.json